Championnats de Nationale 2 d'été

Compétition Interrégionale

GRAND-COURONNE

Du Vendredi 08 Juillet 2016 au Dimanche 10 Juillet 2016

Bassin de 50m

50 Papillon Dames

Finale A

Nom Année Temps Pts Club Pays
1 LEBRET Delphine 1998 0:29:41 1210 AS AVRILLÉ NATATION FRA
2 MONNET Anais 1999 0:29:57 1200 ASPTT ORLÉANS FRA
3 PERU Agathe 2000 0:29:61 1198 EN CAEN FRA
4 POIROT Kamie 1999 0:29:76 1189 ESPADON GRAND-QUEVILLY FRA
5 ROUE Milanda 2000 0:29:78 1188 CN BREST FRA
6 BOUCHEZ Zoé 2001 0:29:80 1187 C VIKINGS DE ROUEN FRA
7 PESCHEUX Pauline 1999 0:30:09 1170 CHARTRES METROPOLE NAT FRA
8 DELANOE Sarah 2000 0:30:47 1147 C PAUL-BERT RENNES FRA

Finale B

Nom Année Temps Pts Club Pays
1 BERSOT Lucie 1999 0:30:29 1158 C REDON NATATION FRA
2 BOUREL Justine 1998 0:30:36 1154 LANNION NATATION FRA
3 BRISARD Oceane 1998 0:30:38 1153 ALENÇON NC FRA
4 CHEVREUX Mathilde 2000 0:30:55 1143 CN LE MANS FRA
5 ROSSIGNOL Telma 1999 0:30:58 1141 CN BREST FRA
6 BERTRAND Léa 2000 0:30:76 1131 SAUMUR NATATION FRA
7 ANDRIN Emilie 1999 0:30:81 1128 UNION QUIMPER NATATION FRA
8 GAUTIER Klervi 2002 0:31:04 1115 CN GUINGAMP FRA

Finale C

Nom Année Temps Pts Club Pays
1 CHADEBAUD Mathilde 2002 0:30:43 1150 US ETREPAGNY FRA
2 ROZUEL Claire 2001 0:30:55 1143 CN BREST FRA
3 HELDENBERGH Emma 2002 0:30:91 1122 AURAY NATATION FRA
4 MOUNIER Alice 2002 0:31:02 1116 CNP LOUDÉAC FRA
5 VANDEWEGHE Manon 2001 0:31:24 1103 CHALLANS NATATION FRA
6 TORRES Marie 2002 0:31:27 1101 STADE ST-VALERY NATATION FRA
7 JANER Clémence 2001 0:31:30 1100 JOUÉ NATATION FRA
8 CLAUDEL Lélia 2002 0:31:43 1092 ES SEGRÉ FRA

Séries

Nom Année Temps Pts Club Pays
1 PERU Agathe 2000 0:29:61 1198 EN CAEN FRA
2 ROUE Milanda 2000 0:29:68 1194 CN BREST FRA
3 LEBRET Delphine 1998 0:29:79 1187 AS AVRILLÉ NATATION FRA
4 POIROT Kamie 1999 0:30:10 1169 ESPADON GRAND-QUEVILLY FRA
5 BOUCHEZ Zoé 2001 0:30:24 1161 C VIKINGS DE ROUEN FRA
6 MONNET Anais 1999 0:30:46 1148 ASPTT ORLÉANS FRA
7 DELANOE Sarah 2000 0:30:47 1147 C PAUL-BERT RENNES FRA
8 PESCHEUX Pauline 1999 0:30:49 1146 CHARTRES METROPOLE NAT FRA
9 BOUREL Justine 1998 0:30:54 1143 LANNION NATATION FRA
10 BERSOT Lucie 1999 0:30:58 1141 C REDON NATATION FRA
11 BRISARD Oceane 1998 0:30:65 1137 ALENÇON NC FRA
12 CHEVREUX Mathilde 2000 0:30:68 1135 CN LE MANS FRA
13 VO THANH Lisa 1998 0:30:76 1131 CN LE MANS FRA
14 ANDRIN Emilie 1999 0:30:77 1130 UNION QUIMPER NATATION FRA
15 GAUTIER Klervi 2002 0:30:94 1120 CN GUINGAMP FRA
16 ROSSIGNOL Telma 1999 0:30:95 1120 CN BREST FRA
17 BERTRAND Léa 2000 0:30:97 1119 SAUMUR NATATION FRA
18 TORRES Marie 2002 0:31:00 1117 STADE ST-VALERY NATATION FRA
19 CHADEBAUD Mathilde 2002 0:31:02 1116 US ETREPAGNY FRA
20 ROZUEL Claire 2001 0:31:09 1112 CN BREST FRA
21 DUPONT Caroline 2000 0:31:11 1111 CN LE MANS FRA
22 PHAN Tamara 2000 0:31:12 1110 LA ROCHE-SUR-YON NATATION FRA
23 MENNETEAU Loana 1999 0:31:14 1109 AQUATIC CLUB BOURGES FRA
24 TRECUL Anaïs 2000 0:31:18 1107 ALLIANCE ORLEANS NATATION FRA
25 ARDERIU Servane 2000 0:31:19 1106 CN FONTENAY-LE-COMTE FRA
26 MOUNIER Alice 2002 0:31:27 1101 CNP LOUDÉAC FRA
27 HELDENBERGH Emma 2002 0:31:29 1100 AURAY NATATION FRA
28 JANER Clémence 2001 0:31:29 1100 JOUÉ NATATION FRA
29 VANDEWEGHE Manon 2001 0:31:33 1098 CHALLANS NATATION FRA
30 VIGET Leïla 2000 0:31:37 1096 ANGERS NATATION FRA
31 CLAUDEL Lélia 2002 0:31:51 1088 ES SEGRÉ FRA
32 WOIRIN Solenn 2001 0:31:57 1085 CN BREST FRA
33 LE LAN Servane 2001 0:31:58 1084 CHARTRES METROPOLE NAT FRA
34 LECLERC Laura 1999 0:31:65 1080 CA EVRON FRA
35 BABARIT Manelle 2002 0:31:68 1078 CLUB AQUATIQUE CHOLETAIS FRA
36 GEORGES Sarah 2001 0:31:70 1077 CLUB DES NAGEURS BALGENTIENS FRA
37 LEVANIC Mailys 2001 0:31:72 1076 LORIENT NATATION FRA
38 ROBILLARD Claire 2000 0:31:78 1073 OCTEVILLE NATATION FRA
39 MHUN Lena 2001 0:31:79 1072 ECN CHARTRES-DE-BRETAGNE FRA
40 NOIROT Axelle 2001 0:31:86 1068 USC D LA CHAPELLE-ST-MESMIN FRA
41 PY Valentine 2001 0:32:08 1056 CNM DIEPPE FRA
42 CURELY Lea 1999 0:32:18 1050 STADE LAVAL FRA
43 LAROUR Jeanne 2002 0:32:20 1049 ST-NAZAIRE ATLANTIQUE NATATION FRA
44 FERRON Berangere 2002 0:32:26 1046 NAUTIC CLUB VOVES FRA
45 LACROIX Lou 1999 0:32:29 1044 ALLIANCE ORLEANS NATATION FRA
46 REMY Cassiopee 2001 0:32:41 1038 ANDELLE NATATION FRA
47 GIOT Fanny 2000 0:32:61 1027 OCTEVILLE NATATION FRA
48 BOLUT Pauline 2001 0:32:74 1019 LA ROCHE-SUR-YON NATATION FRA
49 TOUZÉ Lénaïck 2001 0:32:81 1016 ESPÉRANCE VAILLANTE GRANVILLE FRA
50 GUELLIL Amel 2002 0:32:86 1013 USM SARAN FRA
51 LESAVAND Margot 2000 0:32:88 1012 C REDON NATATION FRA
52 MARTIN Manon 2002 0:33:07 1002 LA ROCHE-SUR-YON NATATION FRA
53 BESSON Camille 2001 0:33:08 1001 ST-NAZAIRE ATLANTIQUE NATATION FRA
54 LEMONNIER-MURARI Emma 2001 0:33:09 1000 OCTEVILLE NATATION FRA
55 RUDEMARE Léna 2001 0:33:12 999 CNM DIEPPE FRA
56 BUNEL Morgane 2002 0:33:33 987 U.S LIFFREENNE NATATION FRA
57 MOREAU Clémence 1996 0:33:43 982 CLUB DAUPHINS LE BLANC FRA
58 LASSALLE Clemence 1999 0:33:47 980 CHARTRES METROPOLE NAT FRA
59 VERGER Anaïs 2000 0:33:47 980 C PAUL-BERT RENNES FRA
60 NAULIN Cédrine 2002 0:33:49 979 NANTES NATATION FRA
61 LE BORGNE Pauline 2002 0:33:54 976 DAUPHINS ELORN LANDERNEAU FRA
62 AGOSTINIS Helcia 1999 0:33:73 966 BAYEUX OLYMPIQUE NATATION FRA
63 FLOURY Léa 2001 0:33:73 966 CLUB DE NATATION PAIMPOL-GOELO FRA
64 PINAUDIER Agathe 2002 0:33:90 957 LOCHES A.C NATATION FRA
65 LEMIRE Inola 2001 0:34:12 945 CNM DIEPPE FRA
66 TREBAOL Lucie 2002 0:34:81 909 CN BREST FRA
67 BEZIER Mayliss 2002 0:34:96 902 ST-NAZAIRE ATLANTIQUE NATATION FRA
68 BOSVY Kim 2002 0:35:35 882 COTENTIN NATATION FRA
SAUMUR NATATION